createdAt,value
2023-07-03T00:02:16.146Z,100124.73
2023-07-03T00:05:11.587Z,100116.16
2023-07-03T00:08:05.416Z,100113.02
2023-07-03T00:10:52.484Z,100116.27
2023-07-03T00:13:25.578Z,100121.87
2023-07-03T00:16:13.479Z,100120.85
2023-07-03T00:19:47.035Z,100132.70
2023-07-03T00:22:34.080Z,100149.81
2023-07-03T00:25:07.207Z,100122.14
2023-07-03T00:27:55.118Z,100126.05
2023-07-03T00:30:28.183Z,100120.02
2023-07-03T00:33:22.311Z,100116.48
2023-07-03T00:36:17.985Z,100120.78
2023-07-03T00:39:05.998Z,100118.17
2023-07-03T00:41:40.214Z,100127.33
2023-07-03T00:44:28.005Z,100126.51
2023-07-03T00:47:01.143Z,100121.33
2023-07-03T00:49:49.014Z,100117.64
2023-07-03T00:52:23.468Z,100124.00
2023-07-03T00:55:09.982Z,100127.14
2023-07-03T00:57:44.159Z,100129.20
2023-07-03T01:00:34.982Z,100125.73
2023-07-03T01:03:43.074Z,100127.54
2023-07-03T01:06:35.954Z,100129.75
2023-07-03T01:09:10.080Z,100136.77
2023-07-03T01:11:58.928Z,100139.11
2023-07-03T01:14:35.042Z,100158.30
2023-07-03T01:17:30.016Z,100146.58
2023-07-03T01:20:29.932Z,100137.89
2023-07-03T01:23:42.934Z,100142.61
2023-07-03T01:26:19.047Z,100139.64
2023-07-03T01:29:08.931Z,100137.17
2023-07-03T01:31:45.064Z,100133.95
2023-07-03T01:34:35.868Z,100133.70
2023-07-03T01:37:11.004Z,100131.02
2023-07-03T01:39:59.217Z,100133.67
2023-07-03T01:42:39.865Z,100135.23
2023-07-03T01:45:26.932Z,100132.10
2023-07-03T01:48:01.022Z,100137.98
2023-07-03T01:50:48.849Z,100134.73
2023-07-03T01:53:33.939Z,100146.42
2023-07-03T01:56:32.816Z,100144.20
2023-07-03T01:59:31.497Z,100137.55
2023-07-03T02:02:24.965Z,100138.50
2023-07-03T02:05:07.265Z,100142.95
2023-07-03T02:07:54.847Z,100150.14
2023-07-03T02:10:28.992Z,100142.89
2023-07-03T02:13:15.819Z,100155.43
2023-07-03T02:15:50.192Z,100143.97
2023-07-03T02:18:37.817Z,100150.57
2023-07-03T02:21:17.872Z,100153.20
2023-07-03T02:23:57.724Z,100150.61
2023-07-03T02:26:38.935Z,100146.21
2023-07-03T02:29:20.780Z,100147.36
2023-07-03T02:32:00.905Z,100151.21
2023-07-03T02:34:40.760Z,100150.13
2023-07-03T02:37:21.595Z,100149.45
2023-07-03T02:40:01.786Z,100149.14
2023-07-03T02:42:42.924Z,100159.86
2023-07-03T02:45:23.747Z,100155.77
2023-07-03T02:48:03.950Z,100156.67
2023-07-03T02:50:43.909Z,100158.48
2023-07-03T02:53:23.826Z,100160.82
2023-07-03T02:56:04.737Z,100157.28
2023-07-03T02:58:46.047Z,100158.54
2023-07-03T03:01:29.708Z,100155.20
2023-07-03T03:04:09.839Z,100150.08
2023-07-03T03:06:50.686Z,100150.40
2023-07-03T03:09:30.776Z,100149.98
2023-07-03T03:12:10.667Z,100150.37
2023-07-03T03:14:51.235Z,100149.84
2023-07-03T03:17:31.721Z,100152.29
2023-07-03T03:20:15.176Z,100148.11
2023-07-03T03:22:55.644Z,100161.21
2023-07-03T03:25:35.838Z,100156.81
2023-07-03T03:28:15.628Z,100150.05
2023-07-03T03:30:55.759Z,100138.92
2023-07-03T03:33:35.601Z,100149.66
2023-07-03T03:36:15.740Z,100140.93
2023-07-03T03:38:56.642Z,100138.02
2023-07-03T03:41:36.690Z,100139.28
2023-07-03T03:44:16.842Z,100141.27
2023-07-03T03:46:59.667Z,100142.21
2023-07-03T03:49:40.687Z,100142.58
2023-07-03T03:52:20.730Z,100147.48
2023-07-03T03:55:00.533Z,100148.86
2023-07-03T03:57:40.713Z,100148.92
2023-07-03T04:00:28.601Z,100146.61
2023-07-03T04:03:08.679Z,100147.69
2023-07-03T04:05:49.931Z,100147.81
2023-07-03T04:08:30.623Z,100155.09
2023-07-03T04:11:10.538Z,100148.30
2023-07-03T04:13:50.642Z,100143.41
2023-07-03T04:16:33.540Z,100154.38
2023-07-03T04:19:27.472Z,100156.38
2023-07-03T04:22:14.488Z,100157.50
2023-07-03T04:24:47.575Z,100158.70
2023-07-03T04:27:34.479Z,100158.45
2023-07-03T04:30:17.089Z,100160.52
2023-07-03T04:33:01.513Z,100162.61
2023-07-03T04:35:44.603Z,100167.35
2023-07-03T04:38:31.503Z,100173.73
2023-07-03T04:41:11.575Z,100185.25
2023-07-03T04:43:54.498Z,100176.70
2023-07-03T04:46:36.222Z,100177.66
2023-07-03T04:49:16.773Z,100167.62
2023-07-03T04:51:56.655Z,100167.08
2023-07-03T04:54:36.434Z,100172.95
2023-07-03T04:57:16.518Z,100174.86
2023-07-03T04:59:57.437Z,100169.63
2023-07-03T05:02:37.504Z,100188.63
2023-07-03T05:05:18.549Z,100174.48
2023-07-03T05:07:59.171Z,100177.25
2023-07-03T05:10:39.373Z,100172.17
2023-07-03T05:13:19.571Z,100176.87
2023-07-03T05:16:00.377Z,100185.52
2023-07-03T05:18:54.314Z,100186.19
2023-07-03T05:21:42.391Z,100182.19
2023-07-03T05:24:16.523Z,100184.22
2023-07-03T05:27:03.405Z,100188.70
2023-07-03T05:29:39.425Z,100194.39
2023-07-03T05:32:26.337Z,100189.52
2023-07-03T05:35:07.540Z,100195.88
2023-07-03T05:37:47.345Z,100211.35
2023-07-03T05:40:31.159Z,100219.88
2023-07-03T05:43:11.298Z,100215.33
2023-07-03T05:45:52.282Z,100217.01
2023-07-03T05:48:32.345Z,100214.17
2023-07-03T05:51:14.037Z,100210.13
2023-07-03T05:53:54.602Z,100215.23
2023-07-03T05:56:35.419Z,100223.88
2023-07-03T05:59:17.258Z,100227.62
2023-07-03T06:01:57.832Z,100239.58
2023-07-03T06:04:38.349Z,100233.69
2023-07-03T06:07:19.382Z,100235.60
2023-07-03T06:09:59.308Z,100241.70
2023-07-03T06:12:39.411Z,100240.16
2023-07-03T06:15:19.259Z,100239.12
2023-07-03T06:18:13.220Z,100239.41
2023-07-03T06:21:00.213Z,100239.42
2023-07-03T06:23:33.313Z,100245.91
2023-07-03T06:26:20.272Z,100241.86
2023-07-03T06:28:54.050Z,100240.25
2023-07-03T06:31:42.241Z,100253.20
2023-07-03T06:34:16.282Z,100264.75
2023-07-03T06:37:03.232Z,100244.79
2023-07-03T06:39:46.250Z,100243.86
2023-07-03T06:42:26.193Z,100245.70
2023-07-03T06:45:07.269Z,100239.32
2023-07-03T06:47:47.237Z,100247.68
2023-07-03T06:50:27.882Z,100247.96
2023-07-03T06:53:08.180Z,100255.86
2023-07-03T06:55:48.411Z,100252.45
2023-07-03T06:58:29.466Z,100256.35
2023-07-03T07:01:20.344Z,100256.27
2023-07-03T07:04:00.184Z,100255.67
2023-07-03T07:06:40.196Z,100248.22
2023-07-03T07:09:20.098Z,100248.54
2023-07-03T07:12:00.246Z,100252.11
2023-07-03T07:14:40.131Z,100247.58
2023-07-03T07:17:20.207Z,100258.67
2023-07-03T07:20:00.158Z,100258.55
2023-07-03T07:22:40.283Z,100271.78
2023-07-03T07:25:20.098Z,100270.07
2023-07-03T07:28:00.142Z,100271.38
2023-07-03T07:30:40.128Z,100268.67
2023-07-03T07:33:22.173Z,100285.91
2023-07-03T07:36:02.080Z,100284.33
2023-07-03T07:38:42.177Z,100305.64
2023-07-03T07:41:22.056Z,100287.42
2023-07-03T07:44:03.128Z,100285.23
2023-07-03T07:46:44.058Z,100284.80
2023-07-03T07:49:24.167Z,100292.17
2023-07-03T07:52:05.034Z,100295.30
2023-07-03T07:54:45.080Z,100306.00
2023-07-03T07:57:25.045Z,100310.56
2023-07-03T08:00:05.335Z,100313.64
2023-07-03T08:02:52.284Z,100312.13
2023-07-03T08:05:32.612Z,100318.73
2023-07-03T08:08:12.998Z,100321.83
2023-07-03T08:11:02.068Z,100322.98
2023-07-03T08:13:42.953Z,100324.63
2023-07-03T08:16:23.197Z,100320.98
2023-07-03T08:19:02.930Z,100328.77
2023-07-03T08:21:43.025Z,100329.52
2023-07-03T08:24:22.974Z,100329.61
2023-07-03T08:27:03.031Z,100324.69
2023-07-03T08:29:44.956Z,100327.19
2023-07-03T08:32:25.106Z,100320.45
2023-07-03T08:37:50.025Z,100324.08
2023-07-03T08:40:30.945Z,100324.55
2023-07-03T08:43:15.308Z,100323.80
2023-07-03T08:45:56.918Z,100325.40
2023-07-03T08:48:42.004Z,100331.92
2023-07-03T08:51:26.928Z,100334.75
2023-07-03T08:54:26.049Z,100343.92
2023-07-03T08:57:08.899Z,100346.11
2023-07-03T08:59:49.010Z,100340.98
2023-07-03T09:02:51.992Z,100342.98
2023-07-03T09:05:43.000Z,100342.73
2023-07-03T09:08:33.872Z,100347.24
2023-07-03T09:11:14.930Z,100352.91
2023-07-03T09:13:58.825Z,100358.31
2023-07-03T09:16:40.662Z,100364.44
2023-07-03T09:19:38.829Z,100364.70
2023-07-03T09:23:00.792Z,100364.51
2023-07-03T09:25:51.507Z,100360.14
2023-07-03T09:28:27.188Z,100361.95
2023-07-03T09:31:14.856Z,100362.29
2023-07-03T09:33:50.199Z,100361.92
2023-07-03T09:36:45.801Z,100364.64
2023-07-03T09:39:21.855Z,100412.98
2023-07-03T09:42:15.721Z,100405.00
2023-07-03T09:44:48.861Z,100397.20
2023-07-03T09:47:36.887Z,100407.61
2023-07-03T09:50:16.967Z,100407.55
2023-07-03T09:53:08.467Z,100397.75
2023-07-03T09:55:51.044Z,100394.86
2023-07-03T09:58:34.748Z,100391.64
2023-07-03T10:07:08.065Z,100407.70
2023-07-03T10:12:47.857Z,100405.78
2023-07-03T10:15:33.689Z,100410.65
2023-07-03T10:18:49.615Z,100409.58
2023-07-03T10:21:39.745Z,100416.73
2023-07-03T10:24:14.503Z,100414.63
2023-07-03T10:27:06.689Z,100418.36
2023-07-03T10:29:47.560Z,100417.94
2023-07-03T10:32:39.733Z,100426.09
2023-07-03T10:35:36.769Z,100426.99
2023-07-03T10:38:26.662Z,100424.22
2023-07-03T10:41:09.784Z,100430.09
2023-07-03T10:44:08.581Z,100433.81
2023-07-03T10:46:49.200Z,100433.16
2023-07-03T10:49:40.582Z,100451.47
2023-07-03T10:52:38.730Z,100446.00
2023-07-03T10:55:23.621Z,100443.38
2023-07-03T10:58:09.727Z,100449.36
2023-07-03T11:01:00.609Z,100454.23
2023-07-03T11:04:15.809Z,100456.74
2023-07-03T11:07:15.517Z,100459.89
2023-07-03T11:10:33.690Z,100478.88
2023-07-03T11:13:20.539Z,100486.05
2023-07-03T11:16:23.793Z,100482.27
2023-07-03T11:25:30.513Z,100467.75
2023-07-03T11:28:34.602Z,100470.46
2023-07-03T11:31:15.566Z,100477.00
2023-07-03T11:36:51.291Z,100477.55
2023-07-03T11:45:14.592Z,100481.92
2023-07-03T11:47:54.504Z,100484.61
2023-07-03T11:50:42.561Z,100482.55
2023-07-03T11:53:40.447Z,100487.14
2023-07-03T11:56:20.158Z,100478.73
2023-07-03T11:59:10.492Z,100485.80
2023-07-03T12:01:44.574Z,100484.58
2023-07-03T12:04:53.427Z,100483.78
2023-07-03T12:07:26.597Z,100480.98
2023-07-03T12:10:25.438Z,100487.64
2023-07-03T12:13:33.550Z,100496.69
2023-07-03T12:16:20.781Z,100493.60
2023-07-03T12:19:07.613Z,100496.06
2023-07-03T12:21:58.385Z,100501.08
2023-07-03T12:24:38.496Z,100498.25
2023-07-03T12:27:18.406Z,100500.70
2023-07-03T12:29:58.490Z,100500.90
2023-07-03T12:32:41.373Z,100506.98
2023-07-03T12:35:25.467Z,100508.16
2023-07-03T12:38:12.383Z,100503.16
2023-07-03T12:40:53.450Z,100527.68
2023-07-03T12:43:33.370Z,100519.88
2023-07-03T12:46:13.482Z,100515.55
2023-07-03T12:48:53.361Z,100520.86
2023-07-03T12:51:33.432Z,100524.48
2023-07-03T12:54:18.304Z,100520.65
2023-07-03T12:57:02.646Z,100523.02
2023-07-03T12:59:43.349Z,100526.56
2023-07-03T13:02:33.319Z,100527.20
2023-07-03T13:05:19.749Z,100536.28
2023-07-03T13:08:07.745Z,100531.50
2023-07-03T13:10:48.250Z,100545.39
2023-07-03T13:13:30.378Z,100535.40
2023-07-03T13:16:20.333Z,100539.13
2023-07-03T13:19:15.207Z,100543.29
2023-07-03T13:22:02.310Z,100547.48
2023-07-03T13:24:37.508Z,100552.41
2023-07-03T13:27:33.195Z,100557.32
2023-07-03T13:30:33.049Z,100550.48
2023-07-03T13:33:32.240Z,100556.02
2023-07-03T13:36:05.297Z,100553.61
2023-07-03T13:38:52.198Z,100563.71
2023-07-03T13:41:26.053Z,100560.02
2023-07-03T13:44:16.198Z,100558.70
2023-07-03T13:46:51.674Z,100556.88
2023-07-03T13:49:38.212Z,100560.86
2023-07-03T13:52:13.277Z,100561.25
2023-07-03T13:55:00.226Z,100555.25
2023-07-03T13:57:40.923Z,100562.71
2023-07-03T14:00:22.808Z,100563.59
2023-07-03T14:03:03.723Z,100558.20
2023-07-03T14:05:44.168Z,100562.85
2023-07-03T14:08:24.453Z,100568.83
2023-07-03T14:11:04.141Z,100572.64
2023-07-03T14:13:45.325Z,100570.05
2023-07-03T14:16:26.101Z,100571.61
2023-07-03T14:19:20.089Z,100572.95
2023-07-03T14:22:07.412Z,100572.36
2023-07-03T14:24:41.226Z,100586.35
2023-07-03T14:27:28.114Z,100569.61
2023-07-03T14:30:09.678Z,100573.55
2023-07-03T14:32:55.989Z,100573.58
2023-07-03T14:35:36.779Z,100573.16
2023-07-03T14:38:17.060Z,100574.05
2023-07-03T14:40:58.163Z,100581.70
2023-07-03T14:43:38.090Z,100571.84
2023-07-03T14:46:18.189Z,100567.36
2023-07-03T14:48:58.116Z,100571.83
2023-07-03T14:51:38.156Z,100570.95
2023-07-03T14:54:18.111Z,100574.33
2023-07-03T14:56:59.678Z,100573.05
2023-07-03T14:59:40.032Z,100575.30
2023-07-03T15:02:20.301Z,100572.71
2023-07-03T15:04:59.989Z,100575.19
2023-07-03T15:07:42.865Z,100577.97
2023-07-03T15:10:23.046Z,100588.67
2023-07-03T15:13:04.327Z,100579.80
2023-07-03T15:15:43.939Z,100582.31
2023-07-03T15:18:32.018Z,100583.20
2023-07-03T15:21:25.987Z,100589.92
2023-07-03T15:24:23.951Z,100590.16
2023-07-03T15:27:13.134Z,100594.55
2023-07-03T15:29:47.348Z,100592.20
2023-07-03T15:32:33.999Z,100598.11
2023-07-03T15:35:07.725Z,100598.21
2023-07-03T15:37:55.067Z,100601.65
2023-07-03T15:40:28.073Z,100607.32
2023-07-03T15:43:14.965Z,100597.61
2023-07-03T15:45:48.086Z,100605.34
2023-07-03T15:48:37.859Z,100601.76
2023-07-03T15:51:13.007Z,100604.69
2023-07-03T15:54:00.922Z,100604.21
2023-07-03T15:56:34.034Z,100595.84
2023-07-03T15:59:20.885Z,100599.98
2023-07-03T16:01:54.011Z,100598.61
2023-07-03T16:04:42.064Z,100596.46
2023-07-03T16:07:16.067Z,100598.49
2023-07-03T16:10:02.902Z,100604.86
2023-07-03T16:12:36.577Z,100599.61
2023-07-03T16:15:23.885Z,100601.36
2023-07-03T16:17:57.108Z,100606.64
2023-07-03T16:20:50.840Z,100606.10
2023-07-03T16:23:46.806Z,100599.66
2023-07-03T16:26:34.814Z,100605.04
2023-07-03T16:29:09.468Z,100612.67
2023-07-03T16:31:57.151Z,100615.56
2023-07-03T16:34:30.936Z,100617.58
2023-07-03T16:37:17.748Z,100617.70
2023-07-03T16:39:50.881Z,100615.63
2023-07-03T16:42:37.818Z,100617.58
2023-07-03T16:45:11.953Z,100620.33
2023-07-03T16:47:58.863Z,100635.60
2023-07-03T16:50:32.267Z,100626.00
2023-07-03T16:53:18.758Z,100628.29
2023-07-03T16:55:52.292Z,100636.53
2023-07-03T16:58:40.771Z,100638.14
2023-07-03T17:01:17.891Z,100639.38
2023-07-03T17:04:05.781Z,100641.88
2023-07-03T17:06:42.544Z,100646.59
2023-07-03T17:09:29.696Z,100645.20
2023-07-03T17:12:02.886Z,100649.30
2023-07-03T17:14:49.695Z,100648.38
2023-07-03T17:17:22.849Z,100658.28
2023-07-03T17:20:16.738Z,100653.13
2023-07-03T17:23:11.638Z,100654.02
2023-07-03T17:26:00.643Z,100654.36
2023-07-03T17:28:34.929Z,100654.67
2023-07-03T17:31:21.787Z,100652.02
2023-07-03T17:33:54.769Z,100653.55
2023-07-03T17:36:41.915Z,100656.91
2023-07-03T17:39:15.770Z,100653.33
2023-07-03T17:42:02.657Z,100654.86
2023-07-03T17:44:35.773Z,100659.54
2023-07-03T17:47:22.651Z,100656.83
2023-07-03T17:49:57.632Z,100658.45
2023-07-03T17:52:44.644Z,100670.66
2023-07-03T17:55:18.729Z,100667.91
2023-07-03T17:58:07.900Z,100674.02
2023-07-03T18:00:42.278Z,100670.61
2023-07-03T18:03:30.861Z,100673.11
2023-07-03T18:06:07.578Z,100673.65
2023-07-03T18:08:54.637Z,100668.02
2023-07-03T18:11:31.280Z,100666.82
2023-07-03T18:14:18.602Z,100663.98
2023-07-03T18:16:51.991Z,100669.36
2023-07-03T18:19:45.607Z,100671.76
2023-07-03T18:22:40.497Z,100670.58
2023-07-03T18:25:27.552Z,100670.07
2023-07-03T18:28:01.735Z,100673.15
2023-07-03T18:30:48.602Z,100678.84
2023-07-03T18:33:22.383Z,100687.14
2023-07-03T18:36:10.553Z,100685.13
2023-07-03T18:38:46.690Z,100681.72
2023-07-03T18:41:35.824Z,100683.56
2023-07-03T18:44:10.263Z,100678.00
2023-07-03T18:46:57.520Z,100676.65
2023-07-03T18:49:31.629Z,100674.61
2023-07-03T18:52:18.518Z,100667.43
2023-07-03T18:54:53.375Z,100664.92
2023-07-03T18:57:42.081Z,100668.45
2023-07-03T19:00:16.947Z,100666.48
2023-07-03T19:03:04.537Z,100667.46
2023-07-03T19:05:39.305Z,100665.91
2023-07-03T19:08:26.519Z,100669.84
2023-07-03T19:11:01.641Z,100672.20
2023-07-03T19:13:48.526Z,100674.92
2023-07-03T19:16:23.115Z,100669.81
2023-07-03T19:19:17.425Z,100675.33
2023-07-03T19:22:11.402Z,100672.55
2023-07-03T19:24:59.341Z,100682.85
2023-07-03T19:27:32.744Z,100688.35
2023-07-03T19:30:20.462Z,100678.09
2023-07-03T19:32:55.146Z,100677.88
2023-07-03T19:35:44.442Z,100679.11
2023-07-03T19:38:18.982Z,100679.36
2023-07-03T19:41:05.400Z,100681.94
2023-07-03T19:43:39.588Z,100682.99
2023-07-03T19:46:29.758Z,100676.36
2023-07-03T19:49:03.957Z,100676.14
2023-07-03T19:51:51.347Z,100679.44
2023-07-03T19:54:24.956Z,100685.08
2023-07-03T19:57:16.720Z,100684.98
2023-07-03T19:59:50.394Z,100688.61
2023-07-03T20:02:39.357Z,100682.91
2023-07-03T20:05:13.417Z,100689.34
2023-07-03T20:08:00.339Z,100696.67
2023-07-03T20:10:36.508Z,100696.20
2023-07-03T20:13:23.345Z,100696.56
2023-07-03T20:15:56.607Z,100695.49
2023-07-03T20:18:43.258Z,100693.17
2023-07-03T20:21:17.378Z,100689.70
2023-07-03T20:24:05.318Z,100686.64
2023-07-03T20:26:38.390Z,100693.70
2023-07-03T20:29:25.281Z,100685.52
2023-07-03T20:32:00.541Z,100688.36
2023-07-03T20:34:47.282Z,100688.98
2023-07-03T20:37:20.334Z,100685.76
2023-07-03T20:40:07.184Z,100686.41
2023-07-03T20:42:40.337Z,100688.02
2023-07-03T20:45:28.315Z,100680.41
2023-07-03T20:48:03.472Z,100683.45
2023-07-03T20:50:58.483Z,100677.38
2023-07-03T20:53:52.049Z,100681.73
2023-07-03T20:56:44.216Z,100681.98
2023-07-03T20:59:17.313Z,100685.88
2023-07-03T21:02:04.218Z,100689.45
2023-07-03T21:04:37.331Z,100687.14
2023-07-03T21:07:24.140Z,100683.52
2023-07-03T21:10:05.152Z,100684.40
2023-07-03T21:12:52.205Z,100692.06
2023-07-03T21:15:25.380Z,100693.91
2023-07-03T21:18:12.191Z,100697.73
2023-07-03T21:20:46.324Z,100684.10
2023-07-03T21:23:34.182Z,100684.92
2023-07-03T21:26:07.321Z,100688.23
2023-07-03T21:28:55.173Z,100691.22
2023-07-03T21:31:32.942Z,100686.57
2023-07-03T21:34:20.108Z,100687.49
2023-07-03T21:36:53.227Z,100688.80
2023-07-03T21:39:40.151Z,100696.05
2023-07-03T21:42:14.173Z,100688.70
2023-07-03T21:45:01.087Z,100691.45
2023-07-03T21:47:34.311Z,100692.02
2023-07-03T21:50:21.116Z,100697.06
2023-07-03T21:52:54.205Z,100696.34
2023-07-03T21:55:41.016Z,100695.48
2023-07-03T21:58:14.160Z,100694.65
2023-07-03T22:01:01.025Z,100703.66
2023-07-03T22:03:35.104Z,100708.91
2023-07-03T22:06:21.996Z,100705.83
2023-07-03T22:08:56.110Z,100710.60
2023-07-03T22:11:42.967Z,100700.77
2023-07-03T22:14:16.141Z,100699.39
2023-07-03T22:17:03.052Z,100704.70
2023-07-03T22:19:37.563Z,100697.36
2023-07-03T22:22:27.208Z,100697.45
2023-07-03T22:25:01.044Z,100701.09
2023-07-03T22:27:47.945Z,100693.63
2023-07-03T22:30:23.136Z,100689.71
2023-07-03T22:33:09.945Z,100689.13
2023-07-03T22:35:43.037Z,100696.78
2023-07-03T22:38:29.982Z,100696.77
2023-07-03T22:41:03.863Z,100696.87
2023-07-03T22:43:52.976Z,100700.77
2023-07-03T22:46:26.089Z,100702.02
2023-07-03T22:49:24.380Z,100704.10
2023-07-03T22:51:59.010Z,100697.69
2023-07-03T22:54:47.983Z,100710.52
2023-07-03T22:57:20.977Z,100709.38
2023-07-03T23:00:07.904Z,100707.20
2023-07-03T23:02:41.058Z,100705.04
2023-07-03T23:05:27.918Z,100713.38
2023-07-03T23:08:00.987Z,100705.58
2023-07-03T23:10:57.875Z,100704.92
2023-07-03T23:13:32.966Z,100704.98
2023-07-03T23:16:20.084Z,100698.34
2023-07-03T23:18:54.066Z,100703.11
2023-07-03T23:21:47.823Z,100708.93
2023-07-03T23:24:41.846Z,100703.50
2023-07-03T23:27:31.845Z,100704.73
2023-07-03T23:30:06.046Z,100702.66
2023-07-03T23:32:52.874Z,100701.92
2023-07-03T23:35:25.942Z,100705.63
2023-07-03T23:38:12.802Z,100716.86
2023-07-03T23:40:48.303Z,100704.68
2023-07-03T23:43:34.852Z,100705.05
2023-07-03T23:46:12.957Z,100712.52
2023-07-03T23:48:59.748Z,100709.06
2023-07-03T23:51:34.932Z,100707.27
2023-07-03T23:54:21.840Z,100715.35
2023-07-03T23:56:54.852Z,100711.08
2023-07-03T23:59:42.006Z,100709.09
